Time;durP1;ratioP1;P1;durP2;ratioP2;P2;SDS_P1;SDS_P2;PMS_P1;PMS_P2;Temp;Humidity;BMP_temperature;BMP_pressure;BME280_temperature;BME280_humidity;BME280_pressure;Samples;Min_cycle;Max_cycle;Signal;HPM_P1;HPM_P2
2023/04/30 00:01:03;;;;;;;32.50;30.63;;;;;;;18.24;46.38;102212.78;4994295;28;20050;-71
2023/04/30 00:03:29;;;;;;;32.83;30.67;;;;;;;18.21;46.48;102197.72;4976758;28;20096;-71
2023/04/30 00:05:54;;;;;;;31.60;29.75;;;;;;;18.19;46.53;102210.00;4994201;28;20467;-70
2023/04/30 00:08:20;;;;;;;32.25;30.35;;;;;;;18.16;46.51;102198.50;4994133;28;20035;-70
2023/04/30 00:10:45;;;;;;;32.28;30.17;;;;;;;18.14;46.56;102205.31;4994171;28;20038;-70
2023/04/30 00:13:12;;;;;;;34.63;32.63;;;;;;;18.13;46.41;102209.13;4994478;28;20180;-70
2023/04/30 00:15:38;;;;;;;32.08;30.17;;;;;;;18.11;46.31;102205.81;4977495;28;20042;-71
2023/04/30 00:18:05;;;;;;;33.88;31.77;;;;;;;18.08;46.50;102207.16;4994120;28;20042;-72
2023/04/30 00:20:31;;;;;;;34.70;32.33;;;;;;;18.06;46.38;102209.31;4976608;28;20371;-71
2023/04/30 00:22:56;;;;;;;31.55;29.85;;;;;;;18.03;46.67;102209.03;4993750;28;20042;-72
2023/04/30 00:25:23;;;;;;;36.17;34.00;;;;;;;18.01;46.54;102208.44;4993707;28;20038;-72
2023/04/30 00:27:49;;;;;;;32.92;30.83;;;;;;;17.99;46.67;102216.09;4976869;28;20035;-71
2023/04/30 00:30:14;;;;;;;33.13;31.00;;;;;;;17.97;46.94;102218.25;4994277;28;20425;-71
2023/04/30 00:32:39;;;;;;;33.13;30.65;;;;;;;17.93;46.75;102217.94;4994254;28;20351;-71
2023/04/30 00:35:05;;;;;;;31.67;29.77;;;;;;;17.91;46.58;102215.44;4993980;28;20113;-72
2023/04/30 00:37:31;;;;;;;32.88;30.55;;;;;;;17.88;46.85;102213.22;4993567;28;20030;-71
2023/04/30 00:39:56;;;;;;;33.30;30.98;;;;;;;17.85;46.94;102211.03;4994957;28;20042;-70
2023/04/30 00:42:22;;;;;;;32.35;30.25;;;;;;;17.84;46.87;102211.25;4998086;28;20085;-70
2023/04/30 00:44:47;;;;;;;30.02;28.08;;;;;;;17.81;46.99;102215.34;4980511;28;20038;-72
2023/04/30 00:47:13;;;;;;;29.70;28.02;;;;;;;17.79;46.74;102214.75;4998258;28;20034;-71
2023/04/30 00:49:38;;;;;;;31.05;29.27;;;;;;;17.77;46.69;102210.63;4997656;28;20121;-72
2023/04/30 00:52:04;;;;;;;31.38;29.38;;;;;;;17.76;46.92;102215.25;4998015;28;20355;-71
2023/04/30 00:54:30;;;;;;;32.67;30.65;;;;;;;17.72;46.75;102214.94;4997663;28;20065;-71
2023/04/30 00:56:55;;;;;;;30.48;28.48;;;;;;;17.70;46.66;102214.38;4980457;28;20040;-71
2023/04/30 00:59:20;;;;;;;33.10;30.88;;;;;;;17.68;46.95;102211.06;4997841;28;20034;-70
2023/04/30 01:01:46;;;;;;;31.45;29.73;;;;;;;17.67;46.67;102211.31;4963898;28;20463;-71
2023/04/30 01:04:12;;;;;;;31.63;29.73;;;;;;;17.63;46.78;102205.53;4997749;28;20076;-70
2023/04/30 01:06:37;;;;;;;30.52;28.65;;;;;;;17.62;46.91;102208.53;4998176;28;20034;-72
2023/04/30 01:09:03;;;;;;;30.73;29.00;;;;;;;17.60;46.57;102207.94;4963731;28;20027;-71
2023/04/30 01:11:52;;;;;;;34.35;32.03;;;;;;;17.56;46.58;102204.06;4997253;28;20053;-71
2023/04/30 01:14:27;;;;;;;31.50;29.70;;;;;;;17.52;46.85;102210.03;4997539;28;20486;-70
2023/04/30 01:17:07;;;;;;;30.58;28.75;;;;;;;17.50;47.07;102203.19;4997508;28;20031;-71
2023/04/30 01:19:43;;;;;;;32.25;30.17;;;;;;;17.48;46.88;102208.88;4997747;28;20034;-71
2023/04/30 01:22:34;;;;;;;30.92;29.05;;;;;;;17.46;46.95;102210.22;4997192;28;20486;-71
2023/04/30 01:25:12;;;;;;;31.77;29.77;;;;;;;17.43;46.55;102203.34;4997464;28;20034;-71
2023/04/30 01:28:13;;;;;;;32.25;30.00;;;;;;;17.40;46.62;102209.34;4997167;28;20060;-71
2023/04/30 01:30:43;;;;;;;30.35;28.17;;;;;;;17.36;46.75;102200.00;4997517;28;20085;-72
2023/04/30 01:33:09;;;;;;;31.05;29.15;;;;;;;17.35;46.74;102198.34;4997035;28;20026;-71
2023/04/30 01:35:53;;;;;;;32.40;30.02;;;;;;;17.33;46.78;102202.41;4996741;28;20043;-71
2023/04/30 01:38:40;;;;;;;30.33;28.50;;;;;;;17.28;46.79;102203.16;4996637;28;20026;-71
2023/04/30 01:41:09;;;;;;;30.63;28.55;;;;;;;17.27;47.08;102206.97;4997433;28;20040;-71
2023/04/30 01:43:48;;;;;;;29.92;28.13;;;;;;;17.25;47.13;102211.84;4996754;28;20471;-71
2023/04/30 01:46:22;;;;;;;;;;;;;;;17.20;47.07;102204.41;4997245;28;20053;-70
2023/04/30 01:49:06;;;;;;;29.33;27.52;;;;;;;17.16;46.84;102206.00;4996474;28;19984;-72
2023/04/30 01:51:37;;;;;;;31.70;29.60;;;;;;;17.13;46.91;102206.50;4996358;28;20304;-70
2023/04/30 01:54:08;;;;;;;30.48;28.58;;;;;;;17.13;46.67;102211.13;4996728;28;20034;-69
2023/04/30 01:56:43;;;;;;;31.75;29.58;;;;;;;17.11;47.03;102202.34;4996721;28;20105;-71
2023/04/30 01:59:09;;;;;;;28.80;27.20;;;;;;;17.09;47.24;102205.34;4996888;28;20122;-70
2023/04/30 02:01:35;;;;;;;31.17;29.25;;;;;;;17.09;46.82;102216.28;4979745;28;20034;-70
2023/04/30 02:04:00;;;;;;;30.98;29.08;;;;;;;17.07;46.77;102208.31;4996599;28;20023;-71
2023/04/30 02:06:27;;;;;;;31.73;29.52;;;;;;;17.05;47.27;102213.22;4996205;28;20092;-70
2023/04/30 02:09:01;;;;;;;31.25;29.17;;;;;;;17.04;47.27;102221.66;4996342;28;20455;-70
2023/04/30 02:11:27;;;;;;;30.05;28.27;;;;;;;17.02;46.83;102218.34;4996474;28;20034;-71
2023/04/30 02:13:52;;;;;;;31.02;29.13;;;;;;;17.00;46.89;102220.50;4978743;28;20057;-71
2023/04/30 02:16:17;;;;;;;31.88;29.75;;;;;;;16.98;46.93;102212.56;4996697;28;20117;-70
2023/04/30 02:18:44;;;;;;;29.98;28.08;;;;;;;16.97;46.70;102210.91;4979597;28;20089;-70
2023/04/30 02:21:09;;;;;;;31.00;29.00;;;;;;;16.96;47.23;102208.41;4995755;28;20386;-71
2023/04/30 02:23:35;;;;;;;33.10;30.98;;;;;;;16.94;46.61;102219.59;4996296;28;20030;-71
2023/04/30 02:26:01;;;;;;;30.88;28.77;;;;;;;16.92;46.81;102221.75;4995978;28;20425;-71
2023/04/30 02:28:27;;;;;;;30.52;28.58;;;;;;;16.91;47.05;102216.53;4996125;28;20085;-71
2023/04/30 02:30:53;;;;;;;29.65;27.60;;;;;;;16.89;47.15;102210.50;4995841;28;20467;-70
2023/04/30 02:33:18;;;;;;;30.40;28.58;;;;;;;16.86;47.07;102209.13;4996140;28;20045;-71
2023/04/30 02:35:43;;;;;;;30.88;28.77;;;;;;;16.86;47.06;102217.31;4995840;28;20030;-70
2023/04/30 02:38:09;;;;;;;29.10;27.17;;;;;;;16.84;46.95;102214.81;4996301;28;20030;-70
2023/04/30 02:40:34;;;;;;;31.77;29.65;;;;;;;16.82;47.24;102216.94;4995964;28;20038;-70
2023/04/30 02:43:00;;;;;;;29.33;27.48;;;;;;;16.80;46.89;102221.81;4995933;28;20031;-70
2023/04/30 02:45:26;;;;;;;30.00;28.08;;;;;;;16.78;46.91;102213.09;4995572;28;20386;-71
2023/04/30 02:47:51;;;;;;;29.40;27.52;;;;;;;16.76;47.05;102215.19;4995605;28;20034;-70
2023/04/30 02:50:16;;;;;;;30.30;28.27;;;;;;;16.74;47.25;102217.34;4996041;28;20121;-70
2023/04/30 02:52:45;;;;;;;30.40;28.30;;;;;;;16.72;47.12;102213.22;4978104;28;20122;-71
2023/04/30 02:55:11;;;;;;;28.95;27.15;;;;;;;16.69;47.10;102214.53;4995145;28;20386;-70
2023/04/30 02:57:36;;;;;;;31.13;28.88;;;;;;;16.69;47.17;102224.63;4978437;28;20031;-71
2023/04/30 03:00:02;;;;;;;29.30;27.42;;;;;;;16.65;47.30;102218.81;4995899;28;20471;-70
2023/04/30 03:02:28;;;;;;;29.10;27.48;;;;;;;16.64;46.71;102214.44;4994164;28;20042;-70
2023/04/30 03:04:54;;;;;;;28.58;26.77;;;;;;;16.62;47.19;102216.59;4995301;28;20035;-70
2023/04/30 03:07:19;;;;;;;28.92;27.02;;;;;;;16.60;47.20;102205.09;4995265;28;20367;-70
2023/04/30 03:09:45;;;;;;;31.50;29.27;;;;;;;16.58;47.10;102207.22;4995258;28;20037;-70
2023/04/30 03:12:10;;;;;;;29.90;28.10;;;;;;;16.56;46.79;102209.41;4995348;28;20073;-70
2023/04/30 03:14:36;;;;;;;29.23;27.35;;;;;;;16.55;47.06;102207.75;4995385;28;20061;-72
2023/04/30 03:17:01;;;;;;;29.08;27.08;;;;;;;16.53;47.03;102205.28;4995026;28;20066;-72
2023/04/30 03:19:27;;;;;;;30.17;28.30;;;;;;;16.52;47.08;102205.50;4995254;28;20517;-72
2023/04/30 03:21:53;;;;;;;29.52;27.70;;;;;;;16.50;46.94;102213.09;4995468;28;20039;-70
2023/04/30 03:24:19;;;;;;;29.40;27.67;;;;;;;16.48;46.99;102209.78;4994892;28;20041;-69
2023/04/30 03:26:46;;;;;;;30.73;28.60;;;;;;;16.46;46.94;102201.06;4994754;28;20039;-72
2023/04/30 03:29:11;;;;;;;28.10;26.30;;;;;;;16.45;47.31;102197.47;4994773;28;20085;-73
2023/04/30 03:31:36;;;;;;;30.67;28.60;;;;;;;16.43;47.14;102196.91;4994957;28;20066;-74
2023/04/30 03:34:02;;;;;;;30.35;28.17;;;;;;;16.41;47.00;102197.16;4995286;28;20030;-74
2023/04/30 03:36:27;;;;;;;29.38;27.48;;;;;;;16.39;47.24;102193.03;4994752;28;20064;-72
2023/04/30 03:38:53;;;;;;;28.40;26.60;;;;;;;16.37;47.18;102190.53;4977956;28;20042;-71
2023/04/30 03:41:18;;;;;;;28.30;26.58;;;;;;;16.36;46.90;102197.06;4995364;28;20498;-71
2023/04/30 03:43:43;;;;;;;29.70;27.90;;;;;;;16.35;47.02;102202.75;4994232;28;20475;-70
2023/04/30 03:46:09;;;;;;;28.33;26.58;;;;;;;16.32;46.92;102204.06;4994510;28;20054;-71
2023/04/30 03:48:34;;;;;;;28.92;26.98;;;;;;;16.31;46.88;102209.78;4994970;28;20038;-71
2023/04/30 03:51:00;;;;;;;28.05;26.25;;;;;;;16.29;47.01;102209.19;4994719;28;20062;-71
2023/04/30 03:53:26;;;;;;;28.25;26.40;;;;;;;16.28;47.06;102212.97;4994596;28;20085;-72
2023/04/30 03:55:52;;;;;;;29.20;27.20;;;;;;;16.26;46.97;102212.44;4994866;28;20038;-71
2023/04/30 03:58:18;;;;;;;27.95;26.08;;;;;;;16.25;47.28;102219.75;4994376;28;20042;-71
2023/04/30 04:00:44;;;;;;;29.70;27.58;;;;;;;16.22;47.19;102217.53;4994565;28;20088;-73
2023/04/30 04:03:11;;;;;;;29.98;27.55;;;;;;;16.20;47.36;102208.75;4994788;28;20494;-71
2023/04/30 04:05:36;;;;;;;28.35;26.70;;;;;;;16.18;47.09;102214.47;4976516;28;20039;-71
2023/04/30 04:08:02;;;;;;;28.63;26.83;;;;;;;16.17;46.87;102222.88;4976876;28;20500;-72
2023/04/30 04:10:27;;;;;;;28.83;26.95;;;;;;;16.15;47.09;102214.13;4993914;28;20394;-70
2023/04/30 04:12:53;;;;;;;29.38;27.40;;;;;;;16.14;47.36;102220.66;4994442;28;20050;-71
2023/04/30 04:15:18;;;;;;;29.95;28.13;;;;;;;16.12;47.06;102231.78;4994674;28;20390;-72
2023/04/30 04:17:43;;;;;;;30.30;28.35;;;;;;;16.10;47.02;102231.22;4993804;28;20125;-72
2023/04/30 04:20:10;;;;;;;27.20;25.45;;;;;;;16.09;46.98;102228.72;4994146;28;20367;-74
2023/04/30 04:22:35;;;;;;;28.48;26.67;;;;;;;16.06;47.15;102230.03;4994940;28;20088;-71
2023/04/30 04:25:00;;;;;;;28.05;26.40;;;;;;;16.06;46.83;102229.22;4993964;28;20480;-71
2023/04/30 04:27:26;;;;;;;26.98;25.27;;;;;;;16.02;46.94;102224.22;4994046;28;20510;-73
2023/04/30 04:29:53;;;;;;;29.27;27.17;;;;;;;16.01;46.99;102224.50;4993946;28;20041;-72
2023/04/30 04:32:19;;;;;;;29.77;27.80;;;;;;;16.01;46.98;102238.13;4993931;28;20501;-71
2023/04/30 04:34:44;;;;;;;29.00;26.65;;;;;;;15.98;47.21;102239.44;4993962;28;20034;-73
2023/04/30 04:37:10;;;;;;;28.10;26.30;;;;;;;15.97;47.18;102234.22;4976516;28;20417;-72
2023/04/30 04:39:36;;;;;;;27.10;25.50;;;;;;;15.94;47.47;102232.81;4993976;28;20530;-72
2023/04/30 04:42:02;;;;;;;28.25;26.40;;;;;;;15.94;46.92;102237.44;4993924;28;20030;-73
2023/04/30 04:44:27;;;;;;;28.58;26.65;;;;;;;15.92;46.84;102228.66;4976614;28;20041;-71
2023/04/30 04:46:53;;;;;;;30.23;28.02;;;;;;;15.90;47.30;102231.66;4993857;28;20031;-70
2023/04/30 04:49:18;;;;;;;28.48;26.67;;;;;;;15.89;47.37;102234.59;4994054;28;20113;-72
2023/04/30 04:51:44;;;;;;;29.42;27.25;;;;;;;15.88;47.20;102227.53;4994074;28;20121;-73
2023/04/30 04:54:09;;;;;;;27.33;25.42;;;;;;;15.87;46.79;102234.84;4994115;28;20128;-71
2023/04/30 04:56:35;;;;;;;28.08;26.27;;;;;;;15.86;46.94;102235.91;4994120;28;20042;-71
2023/04/30 04:59:00;;;;;;;29.00;27.05;;;;;;;15.85;46.80;102233.44;4993949;28;20089;-71
2023/04/30 05:01:26;;;;;;;28.98;26.70;;;;;;;15.84;47.13;102227.16;4977089;28;20044;-71
2023/04/30 05:03:52;;;;;;;28.83;26.92;;;;;;;15.84;46.88;102232.59;4993630;28;20049;-72
2023/04/30 05:06:18;;;;;;;27.27;25.48;;;;;;;15.83;46.89;102230.97;4976565;28;20058;-71
2023/04/30 05:08:43;;;;;;;27.63;25.83;;;;;;;15.82;47.00;102234.72;4993594;28;20069;-71
2023/04/30 05:11:09;;;;;;;27.15;25.45;;;;;;;15.79;47.03;102225.16;4976894;28;20125;-71
2023/04/30 05:13:34;;;;;;;27.33;25.50;;;;;;;15.80;47.09;102226.00;4993718;28;20055;-70
2023/04/30 05:16:00;;;;;;;27.27;25.45;;;;;;;15.78;47.16;102226.22;4993307;28;20066;-71
2023/04/30 05:18:25;;;;;;;27.58;25.80;;;;;;;15.77;46.89;102227.31;4960162;28;20034;-74
2023/04/30 05:20:50;;;;;;;29.38;27.17;;;;;;;15.77;47.00;102223.72;4976390;28;20474;-71
2023/04/30 05:23:16;;;;;;;26.88;25.17;;;;;;;15.77;47.20;102235.47;4993295;28;20031;-72
2023/04/30 05:25:42;;;;;;;27.13;25.13;;;;;;;15.76;47.32;102233.81;4994089;28;20038;-75
2023/04/30 05:28:07;;;;;;;29.13;26.65;;;;;;;15.76;47.11;102228.38;4997397;28;20126;-71
2023/04/30 05:30:33;;;;;;;27.83;25.83;;;;;;;15.76;46.92;102233.00;4997579;28;20049;-73
2023/04/30 05:32:58;;;;;;;29.55;27.42;;;;;;;15.76;47.25;102233.00;4997739;28;20054;-75
2023/04/30 05:35:23;;;;;;;29.45;27.50;;;;;;;15.75;47.20;102229.44;4997471;28;20119;-73
2023/04/30 05:37:49;;;;;;;28.20;26.13;;;;;;;15.73;47.22;102237.03;4997373;28;20451;-73
2023/04/30 05:40:15;;;;;;;27.40;25.63;;;;;;;15.73;47.28;102236.19;4996910;28;20467;-71
2023/04/30 05:42:42;;;;;;;27.60;25.95;;;;;;;15.73;47.24;102236.19;4996515;28;20030;-72
2023/04/30 05:45:08;;;;;;;27.88;25.95;;;;;;;15.74;47.43;102243.28;4996783;28;20485;-73
2023/04/30 05:47:34;;;;;;;26.33;24.75;;;;;;;15.72;47.15;102245.44;4996763;28;20034;-73
2023/04/30 05:49:59;;;;;;;28.98;26.98;;;;;;;15.72;47.16;102245.44;4996604;28;20037;-73
2023/04/30 05:52:25;;;;;;;28.20;26.33;;;;;;;15.72;46.98;102246.28;4996663;28;20042;-72
2023/04/30 05:54:50;;;;;;;28.98;27.17;;;;;;;15.73;47.13;102245.19;4996361;28;20139;-73
2023/04/30 05:57:16;;;;;;;28.27;26.30;;;;;;;15.72;47.04;102251.72;4979230;28;20027;-73
2023/04/30 05:59:41;;;;;;;28.55;26.65;;;;;;;15.71;47.01;102239.16;4996240;28;20081;-74
2023/04/30 06:02:07;;;;;;;29.35;27.33;;;;;;;15.72;46.93;102246.28;4996411;28;20042;-74
2023/04/30 06:04:32;;;;;;;27.70;25.58;;;;;;;15.72;47.34;102246.28;4996765;28;20113;-73
2023/04/30 06:06:58;;;;;;;27.65;25.75;;;;;;;15.71;47.04;102233.72;4978694;28;20069;-72
2023/04/30 06:09:23;;;;;;;27.30;25.10;;;;;;;15.71;47.20;102233.72;4996305;28;20038;-72
2023/04/30 06:11:50;;;;;;;29.30;27.33;;;;;;;15.71;47.20;102236.44;4996179;28;20052;-72
2023/04/30 06:14:17;;;;;;;27.23;25.23;;;;;;;15.71;47.07;102230.16;4996426;28;20054;-75
2023/04/30 06:16:44;;;;;;;26.33;24.63;;;;;;;15.71;47.56;102228.25;4979002;28;20500;-73
2023/04/30 06:19:09;;;;;;;25.92;24.25;;;;;;;15.71;47.42;102228.25;4995970;28;20031;-72
2023/04/30 06:21:35;;;;;;;27.50;25.60;;;;;;;15.72;47.53;102231.81;4996282;28;20041;-72
2023/04/30 06:24:00;;;;;;;27.73;25.83;;;;;;;15.72;47.62;102223.63;4996516;28;20030;-72
2023/04/30 06:26:26;;;;;;;27.65;25.85;;;;;;;15.72;47.58;102235.38;4996044;28;20038;-71
2023/04/30 06:28:51;;;;;;;29.33;26.95;;;;;;;15.74;47.22;102240.56;4996296;28;20057;-70
2023/04/30 06:31:17;;;;;;;27.63;25.30;;;;;;;15.74;47.48;102237.84;4978823;28;20052;-72
2023/04/30 06:33:42;;;;;;;27.55;25.50;;;;;;;15.74;47.26;102241.38;4995633;28;20467;-71
2023/04/30 06:36:08;;;;;;;25.35;23.75;;;;;;;15.74;47.62;102233.22;4978334;28;20482;-70
2023/04/30 06:38:33;;;;;;;26.13;24.48;;;;;;;15.76;47.43;102238.44;4995072;28;20037;-70
2023/04/30 06:40:58;;;;;;;26.77;24.98;;;;;;;15.77;47.84;102230.03;4996399;28;20053;-71
2023/04/30 06:43:24;;;;;;;29.50;26.90;;;;;;;15.78;47.39;102231.69;4995668;28;20060;-70
2023/04/30 06:45:49;;;;;;;27.30;25.58;;;;;;;15.79;47.63;102236.03;4995349;28;20124;-71
2023/04/30 06:48:15;;;;;;;28.40;26.23;;;;;;;15.79;47.80;102230.59;4996204;28;20455;-70
2023/04/30 06:50:43;;;;;;;27.98;25.75;;;;;;;15.80;47.98;102234.16;4995147;28;20034;-70
2023/04/30 06:53:12;;;;;;;23.77;22.50;;;;;;;15.82;47.71;102239.38;4978834;28;20062;-70
2023/04/30 06:55:39;;;;;;;30.35;28.13;;;;;;;15.83;47.61;102241.84;4995311;28;20034;-70
2023/04/30 06:58:05;;;;;;;28.35;26.52;;;;;;;15.85;47.71;102244.31;4995282;28;20030;-71
2023/04/30 07:00:31;;;;;;;28.50;26.58;;;;;;;15.87;47.94;102243.00;4995231;28;20035;-71
2023/04/30 07:02:59;;;;;;;31.23;29.15;;;;;;;15.89;48.06;102234.59;4995197;28;20046;-70
2023/04/30 07:05:25;;;;;;;29.47;27.13;;;;;;;15.91;48.05;102246.91;4995484;28;20038;-71
2023/04/30 07:07:51;;;;;;;29.13;27.10;;;;;;;15.93;48.27;102244.78;4995985;28;20109;-71
2023/04/30 07:10:17;;;;;;;29.23;27.08;;;;;;;15.95;47.92;102234.47;4995041;28;20113;-69
2023/04/30 07:12:42;;;;;;;29.05;27.00;;;;;;;15.97;48.41;102239.66;4995083;28;20125;-70
2023/04/30 07:15:08;;;;;;;31.90;29.38;;;;;;;16.00;48.31;102236.44;4994920;28;20393;-71
2023/04/30 07:17:34;;;;;;;28.35;26.45;;;;;;;16.02;48.36;102234.31;4995171;28;20041;-70
2023/04/30 07:19:59;;;;;;;31.08;28.77;;;;;;;16.04;48.09;102231.34;4994849;28;20108;-72
2023/04/30 07:22:25;;;;;;;26.92;25.02;;;;;;;16.06;48.32;102238.22;4977167;28;20475;-70
2023/04/30 07:24:50;;;;;;;28.80;26.80;;;;;;;16.09;48.17;102239.63;4995088;28;20026;-70
2023/04/30 07:27:15;;;;;;;29.83;27.38;;;;;;;16.12;48.57;102239.16;4994715;28;20368;-71
2023/04/30 07:29:41;;;;;;;28.25;26.00;;;;;;;16.15;48.26;102233.19;4994722;28;20434;-70
2023/04/30 07:32:06;;;;;;;29.45;27.30;;;;;;;16.18;48.48;102239.00;4994852;28;20106;-70
2023/04/30 07:34:32;;;;;;;30.42;28.23;;;;;;;16.22;48.56;102234.69;4994402;28;20498;-70
2023/04/30 07:36:57;;;;;;;28.63;26.67;;;;;;;16.28;48.47;102232.06;4994629;28;20042;-69
2023/04/30 07:39:22;;;;;;;27.67;25.80;;;;;;;16.34;48.52;102239.28;4977326;28;20054;-70
2023/04/30 07:41:48;;;;;;;30.40;28.30;;;;;;;16.38;48.67;102237.75;4994706;28;20042;-70
2023/04/30 07:44:13;;;;;;;33.28;30.70;;;;;;;16.42;48.46;102227.97;4994571;28;20061;-70
2023/04/30 07:46:38;;;;;;;31.90;29.50;;;;;;;16.47;48.55;102227.25;4994562;28;20030;-70
2023/04/30 07:49:04;;;;;;;30.02;27.98;;;;;;;16.51;49.16;102222.97;4994105;28;20034;-70
2023/04/30 07:51:31;;;;;;;31.75;29.55;;;;;;;16.56;48.72;102225.78;4994431;28;20458;-70
2023/04/30 07:53:57;;;;;;;29.35;27.48;;;;;;;16.63;49.26;102226.41;4977353;28;20467;-70
2023/04/30 07:56:22;;;;;;;30.20;28.05;;;;;;;16.68;48.92;102229.22;4994467;28;20064;-70
2023/04/30 07:58:47;;;;;;;27.55;25.90;;;;;;;16.74;48.99;102232.91;4994132;28;20586;-72
2023/04/30 08:01:14;;;;;;;29.63;27.73;;;;;;;16.80;49.05;102232.75;4994581;28;20077;-70
2023/04/30 08:03:39;;;;;;;30.55;28.75;;;;;;;16.85;48.81;102223.81;4994401;28;20022;-72
2023/04/30 08:06:06;;;;;;;31.35;29.23;;;;;;;16.94;48.80;102232.44;4994232;28;20401;-70
2023/04/30 08:08:32;;;;;;;30.58;28.52;;;;;;;17.00;49.19;102234.16;4994727;28;20034;-70
2023/04/30 08:10:57;;;;;;;31.90;29.77;;;;;;;17.07;49.21;102240.28;4976659;28;20540;-71
2023/04/30 08:13:22;;;;;;;29.83;27.83;;;;;;;17.13;49.29;102233.78;4993916;28;20463;-69
2023/04/30 08:15:48;;;;;;;31.50;29.45;;;;;;;17.20;49.39;102239.91;4994375;28;20533;-71
2023/04/30 08:18:13;;;;;;;32.58;30.40;;;;;;;17.27;49.24;102243.28;4961118;28;20034;-70
2023/04/30 08:20:39;;;;;;;31.98;29.75;;;;;;;17.34;49.22;102237.66;4976513;28;20060;-71
2023/04/30 08:23:04;;;;;;;31.17;29.13;;;;;;;17.41;49.34;102238.31;4976688;28;20462;-70
2023/04/30 08:25:30;;;;;;;34.03;31.83;;;;;;;17.48;49.14;102238.13;4993895;28;20157;-70
2023/04/30 08:27:56;;;;;;;31.38;29.27;;;;;;;17.54;49.48;102231.66;4994210;28;20030;-70
2023/04/30 08:30:21;;;;;;;31.95;29.75;;;;;;;17.62;49.50;102233.94;4960686;28;20081;-70
2023/04/30 08:32:48;;;;;;;31.70;29.50;;;;;;;17.70;49.39;102232.69;4994115;28;20027;-71
2023/04/30 08:35:15;;;;;;;33.00;30.58;;;;;;;17.78;49.03;102236.88;4993870;28;20487;-70
2023/04/30 08:37:41;;;;;;;32.88;30.58;;;;;;;17.86;49.49;102236.44;4993973;28;20026;-70
2023/04/30 08:40:08;;;;;;;33.75;31.23;;;;;;;17.95;49.62;102240.38;4976534;28;20096;-70
2023/04/30 08:42:35;;;;;;;33.33;31.10;;;;;;;18.03;49.45;102230.91;4994088;28;20034;-70
2023/04/30 08:45:02;;;;;;;32.03;29.90;;;;;;;18.11;49.20;102234.00;4994418;28;20034;-70
2023/04/30 08:47:28;;;;;;;32.53;30.48;;;;;;;18.19;49.43;102227.22;4993891;28;20568;-70
2023/04/30 08:49:53;;;;;;;34.45;32.25;;;;;;;18.28;49.72;102233.09;4993493;28;20109;-70
2023/04/30 08:52:20;;;;;;;33.72;31.58;;;;;;;18.37;49.19;102226.06;4993983;28;20041;-70
2023/04/30 08:54:47;;;;;;;33.97;31.73;;;;;;;18.45;49.23;102227.50;4993798;28;20034;-69
2023/04/30 08:57:12;;;;;;;35.35;33.08;;;;;;;18.54;49.38;102226.75;4994420;28;20449;-70
2023/04/30 08:59:38;;;;;;;35.85;33.55;;;;;;;18.63;49.69;102223.56;4994284;28;20038;-70
2023/04/30 09:02:04;;;;;;;33.97;31.90;;;;;;;18.72;49.73;102214.63;4997248;28;20031;-71
2023/04/30 09:04:29;;;;;;;35.22;32.75;;;;;;;18.81;49.55;102212.22;4997213;28;20411;-70
2023/04/30 09:06:58;;;;;;;34.17;32.13;;;;;;;18.91;49.22;102215.03;4998021;28;20041;-70
2023/04/30 09:09:37;;;;;;;36.08;33.70;;;;;;;19.00;49.65;102208.00;4997653;28;20034;-70
2023/04/30 09:12:13;;;;;;;35.75;33.58;;;;;;;19.11;49.64;102217.09;4997445;28;20053;-70
2023/04/30 09:14:40;;;;;;;34.03;31.98;;;;;;;19.18;49.60;102214.97;4996968;28;20433;-70
2023/04/30 09:17:07;;;;;;;35.05;32.75;;;;;;;19.29;49.03;102215.84;4997546;28;20030;-70
2023/04/30 09:19:33;;;;;;;36.25;33.95;;;;;;;19.37;49.69;102211.75;4997194;28;20053;-70
2023/04/30 09:21:58;;;;;;;36.45;34.35;;;;;;;19.46;49.40;102215.66;4997425;28;20030;-71
2023/04/30 09:24:24;;;;;;;37.58;35.28;;;;;;;19.55;49.72;102215.94;4997055;28;20109;-70
2023/04/30 09:26:50;;;;;;;36.20;33.90;;;;;;;19.63;49.28;102205.31;4997659;28;20036;-71
2023/04/30 09:29:16;;;;;;;38.78;36.53;;;;;;;19.71;48.95;102206.75;4997524;28;20030;-71
2023/04/30 09:31:45;;;;;;;38.10;36.00;;;;;;;19.80;49.28;102204.28;4979671;28;20141;-70
2023/04/30 09:34:11;;;;;;;37.45;35.35;;;;;;;19.88;48.66;102201.88;4996855;28;20149;-72
2023/04/30 09:36:37;;;;;;;38.30;35.90;;;;;;;19.97;48.92;102201.34;4996891;28;20470;-70
2023/04/30 09:39:16;;;;;;;37.50;35.38;;;;;;;20.05;49.65;102209.03;4996962;28;20104;-70
2023/04/30 09:41:41;;;;;;;39.90;37.33;;;;;;;20.12;49.28;102198.63;4997633;28;20127;-70
2023/04/30 09:44:07;;;;;;;37.83;35.80;;;;;;;20.20;49.57;102200.00;4996881;28;20113;-70
2023/04/30 09:46:36;;;;;;;38.33;36.15;;;;;;;20.28;49.28;102203.03;4996424;28;20082;-70
2023/04/30 09:49:03;;;;;;;;;;;;;;;20.34;49.54;102197.56;4996866;28;20073;-70
2023/04/30 09:51:28;;;;;;;41.85;39.45;;;;;;;20.41;49.74;102198.09;4996607;28;19940;-71
2023/04/30 09:53:55;;;;;;;39.05;36.83;;;;;;;20.48;49.40;102187.69;4996747;28;20383;-70
2023/04/30 09:56:23;;;;;;;39.78;37.50;;;;;;;20.56;49.53;102191.81;4996484;28;20043;-70
2023/04/30 09:58:56;;;;;;;39.10;36.80;;;;;;;20.62;49.68;102194.31;4996589;28;20041;-71
2023/04/30 10:01:27;;;;;;;39.72;37.42;;;;;;;20.72;49.57;102194.28;4996601;28;20030;-70
2023/04/30 10:03:53;;;;;;;41.20;39.00;;;;;;;20.79;49.62;102196.78;4996741;28;20031;-70
2023/04/30 10:06:22;;;;;;;42.83;40.10;;;;;;;20.87;49.60;102196.19;4996307;28;20048;-71
2023/04/30 10:08:50;;;;;;;;;;;;;;;20.92;49.25;102187.13;4996817;28;20030;-72
2023/04/30 10:11:20;;;;;;;38.28;36.13;;;;;;;21.00;49.63;102183.00;4995906;28;19948;-70
2023/04/30 10:13:54;;;;;;;40.85;38.25;;;;;;;21.04;49.38;102186.81;4978985;28;20430;-70
2023/04/30 10:16:52;;;;;;;43.13;40.58;;;;;;;21.10;49.24;102185.72;4996536;28;20034;-71
2023/04/30 10:19:24;;;;;;;42.97;40.50;;;;;;;21.16;48.85;102179.91;4978927;28;20364;-70
2023/04/30 10:21:50;;;;;;;41.40;38.80;;;;;;;21.23;49.42;102182.38;4995855;28;20470;-71
2023/04/30 10:24:18;;;;;;;42.70;40.40;;;;;;;21.30;49.14;102179.34;4996037;28;20056;-70
2023/04/30 10:26:44;;;;;;;44.58;42.25;;;;;;;21.36;49.11;102175.47;4996075;28;20081;-70
2023/04/30 10:29:15;;;;;;;41.65;39.30;;;;;;;21.42;48.99;102176.28;4995992;28;20034;-71
2023/04/30 10:31:44;;;;;;;40.67;38.38;;;;;;;21.46;49.19;102180.94;4995985;28;20026;-70
2023/04/30 10:34:40;;;;;;;42.88;40.58;;;;;;;21.52;49.28;102176.25;4995982;28;20034;-72
2023/04/30 10:37:32;;;;;;;43.63;41.13;;;;;;;21.57;49.35;102173.47;4996668;28;20038;-70
2023/04/30 10:39:57;;;;;;;42.38;40.08;;;;;;;21.64;49.56;102167.66;4978463;28;20040;-71
2023/04/30 10:42:23;;;;;;;46.97;44.28;;;;;;;21.69;48.88;102162.16;4996244;28;20026;-71
2023/04/30 10:44:48;;;;;;;43.38;40.92;;;;;;;21.74;49.30;102165.69;4995537;28;20066;-71
2023/04/30 10:47:15;;;;;;;44.20;41.90;;;;;;;21.78;49.08;102164.03;4996203;28;20049;-72
2023/04/30 10:49:47;;;;;;;45.25;42.80;;;;;;;21.82;48.32;102161.50;4995539;28;20459;-72
2023/04/30 10:52:12;;;;;;;43.25;41.00;;;;;;;21.87;48.40;102153.22;4995816;28;20031;-72
2023/04/30 10:54:38;;;;;;;46.22;43.45;;;;;;;21.93;48.52;102151.28;4978464;28;20027;-71
2023/04/30 10:57:16;;;;;;;44.15;41.78;;;;;;;21.97;48.47;102153.19;4995485;28;20113;-70
2023/04/30 10:59:52;;;;;;;44.75;42.10;;;;;;;22.01;48.69;102146.00;4995393;28;20031;-71
2023/04/30 11:02:18;;;;;;;44.92;42.40;;;;;;;22.04;48.39;102142.66;4995923;28;20117;-71
2023/04/30 11:05:05;;;;;;;42.75;40.47;;;;;;;22.07;48.60;102132.19;4995086;28;20065;-71
2023/04/30 11:07:30;;;;;;;46.65;44.05;;;;;;;22.11;48.46;102136.03;4995247;28;20386;-70
2023/04/30 11:09:56;;;;;;;47.05;44.30;;;;;;;22.14;48.35;102125.25;4995165;28;20080;-71